Time;durP1;ratioP1;P1;durP2;ratioP2;P2;SDS_P1;SDS_P2;PMS_P1;PMS_P2;Temp;Humidity;BMP_temperature;BMP_pressure;BME280_temperature;BME280_humidity;BME280_pressure;Samples;Min_cycle;Max_cycle;Signal;HPM_P1;HPM_P2
2021/06/16 00:00:01;;;;;;;9.27;7.35;;;19.80;93.20;;;;;;5042238;28;20060;-80
2021/06/16 00:02:27;;;;;;;7.38;6.35;;;19.80;93.20;;;;;;5042417;28;20044;-81
2021/06/16 00:04:52;;;;;;;8.02;6.15;;;19.80;93.20;;;;;;5053301;28;20114;-82
2021/06/16 00:07:18;;;;;;;9.43;6.57;;;19.80;93.30;;;;;;5044183;28;20056;-82
2021/06/16 00:09:44;;;;;;;8.98;6.38;;;19.80;93.30;;;;;;5042369;28;20486;-82
2021/06/16 00:12:10;;;;;;;8.13;6.53;;;19.80;93.30;;;;;;5043885;28;20144;-81
2021/06/16 00:14:36;;;;;;;7.82;6.47;;;19.80;93.30;;;;;;5042307;28;20099;-81
2021/06/16 00:17:03;;;;;;;9.40;6.63;;;19.80;93.20;;;;;;5044722;28;20119;-82
2021/06/16 00:19:28;;;;;;;8.82;6.15;;;19.80;93.10;;;;;;5044170;28;20056;-82
2021/06/16 00:21:54;;;;;;;9.45;6.40;;;19.80;93.00;;;;;;5049522;28;20053;-82
2021/06/16 00:24:20;;;;;;;7.72;6.20;;;19.80;93.20;;;;;;5041493;28;20060;-82
2021/06/16 00:26:48;;;;;;;7.68;6.20;;;19.80;93.10;;;;;;5045855;28;20065;-82
2021/06/16 00:29:15;;;;;;;7.70;6.35;;;19.80;93.10;;;;;;5042445;28;20037;-80
2021/06/16 00:31:41;;;;;;;10.52;6.55;;;19.80;93.00;;;;;;5060272;28;20037;-80
2021/06/16 00:34:06;;;;;;;8.82;5.45;;;19.80;93.00;;;;;;5044044;28;20111;-80
2021/06/16 00:36:32;;;;;;;8.13;6.45;;;19.80;93.00;;;;;;5038363;28;21063;-81
2021/06/16 00:38:58;;;;;;;9.63;6.57;;;19.80;93.00;;;;;;5043803;28;20412;-82
2021/06/16 00:41:24;;;;;;;8.50;6.18;;;19.80;93.00;;;;;;5042425;28;20041;-81
2021/06/16 00:43:50;;;;;;;8.15;5.78;;;19.80;93.00;;;;;;5041820;28;20110;-81
2021/06/16 00:46:17;;;;;;;8.20;6.38;;;19.80;93.00;;;;;;5039952;28;20192;-80
2021/06/16 00:48:42;;;;;;;7.05;6.30;;;19.80;93.00;;;;;;5040058;28;20041;-81
2021/06/16 00:51:08;;;;;;;6.05;5.38;;;19.80;93.10;;;;;;5047235;28;20028;-81
2021/06/16 00:53:33;;;;;;;9.07;5.60;;;19.80;93.00;;;;;;5039491;28;20068;-82
2021/06/16 00:56:00;;;;;;;7.63;5.57;;;19.80;93.10;;;;;;5043050;28;20067;-83
2021/06/16 00:58:25;;;;;;;8.02;5.95;;;19.80;93.00;;;;;;5048645;28;20040;-82
2021/06/16 01:01:13;;;;;;;6.63;4.93;;;19.80;93.00;;;;;;5038501;28;20052;-82
2021/06/16 01:03:43;;;;;;;9.38;5.75;;;19.70;93.00;;;;;;5045096;28;20040;-82
2021/06/16 01:06:33;;;;;;;7.18;5.78;;;19.70;93.10;;;;;;5047298;28;20045;-81
2021/06/16 01:09:06;;;;;;;9.48;6.15;;;19.70;93.10;;;;;;5040684;28;20049;-81
2021/06/16 01:11:36;;;;;;;13.02;7.10;;;19.60;93.10;;;;;;5039866;28;20033;-81
2021/06/16 01:14:11;;;;;;;9.05;5.95;;;19.60;93.00;;;;;;5041565;28;20424;-81
2021/06/16 01:16:42;;;;;;;7.60;6.78;;;19.60;93.10;;;;;;5041285;28;20055;-80
2021/06/16 01:19:22;;;;;;;7.60;5.75;;;19.60;93.10;;;;;;5044544;28;20052;-81
2021/06/16 01:21:54;;;;;;;9.15;6.50;;;19.60;93.20;;;;;;5041914;28;20044;-81
2021/06/16 01:24:19;;;;;;;6.90;6.17;;;19.50;93.30;;;;;;5038778;28;20416;-81
2021/06/16 01:26:51;;;;;;;7.55;6.18;;;19.60;93.30;;;;;;5042466;28;20140;-81
2021/06/16 01:29:25;;;;;;;7.85;6.32;;;19.50;93.30;;;;;;5040498;28;20052;-82
2021/06/16 01:31:51;;;;;;;8.95;6.85;;;19.50;93.20;;;;;;5047938;28;20040;-81
2021/06/16 01:34:20;;;;;;;12.05;6.93;;;19.50;93.20;;;;;;5042059;28;20040;-81
2021/06/16 01:36:48;;;;;;;12.00;6.15;;;19.50;93.20;;;;;;5042750;28;20071;-81
2021/06/16 01:39:17;;;;;;;9.52;5.95;;;19.50;93.20;;;;;;5046191;28;20037;-80
2021/06/16 01:41:44;;;;;;;9.27;6.22;;;19.50;93.30;;;;;;5040812;28;20037;-81
2021/06/16 01:44:11;;;;;;;8.63;6.55;;;19.40;93.20;;;;;;5044572;28;20510;-80
2021/06/16 01:46:38;;;;;;;9.15;6.88;;;19.40;93.20;;;;;;5044206;28;20044;-81
2021/06/16 01:49:04;;;;;;;10.50;6.32;;;19.40;93.20;;;;;;5047904;28;20055;-81
2021/06/16 01:51:30;;;;;;;8.50;6.47;;;19.40;93.30;;;;;;5038350;28;20045;-81
2021/06/16 01:53:57;;;;;;;10.85;7.22;;;19.40;93.30;;;;;;5037955;28;20048;-82
2021/06/16 01:56:24;;;;;;;7.22;6.18;;;19.40;93.40;;;;;;5045085;28;20033;-81
2021/06/16 01:58:50;;;;;;;11.93;6.93;;;19.40;93.50;;;;;;5039321;28;20130;-81
2021/06/16 02:01:20;;;;;;;10.05;6.53;;;19.30;93.50;;;;;;5038260;28;20045;-81
2021/06/16 02:03:46;;;;;;;9.43;7.43;;;19.30;93.60;;;;;;5035523;28;20324;-80
2021/06/16 02:06:16;;;;;;;10.52;7.35;;;19.30;93.60;;;;;;5043530;28;20063;-80
2021/06/16 02:08:45;;;;;;;9.38;7.28;;;19.20;93.70;;;;;;5046064;28;20412;-81
2021/06/16 02:11:12;;;;;;;10.82;6.45;;;19.20;93.80;;;;;;5048054;28;20060;-81
2021/06/16 02:13:44;;;;;;;8.30;6.85;;;19.20;93.80;;;;;;5042776;28;20098;-80
2021/06/16 02:16:13;;;;;;;13.37;8.83;;;19.20;93.80;;;;;;5044222;28;20123;-80
2021/06/16 02:18:49;;;;;;;10.70;7.68;;;19.20;93.90;;;;;;5049223;28;20291;-80
2021/06/16 02:21:16;;;;;;;11.98;7.93;;;19.20;94.00;;;;;;5043347;28;20370;-80
2021/06/16 02:23:42;;;;;;;12.30;7.75;;;19.10;94.00;;;;;;5041760;28;20052;-80
2021/06/16 02:26:11;;;;;;;13.13;8.32;;;19.20;94.10;;;;;;5045382;28;20041;-82
2021/06/16 02:28:37;;;;;;;9.85;7.50;;;19.10;94.10;;;;;;5043826;28;20053;-82
2021/06/16 02:31:02;;;;;;;10.73;8.23;;;19.20;94.20;;;;;;5044553;28;20112;-81
2021/06/16 02:33:29;;;;;;;10.88;8.30;;;19.20;94.20;;;;;;5045425;28;20049;-81
2021/06/16 02:35:55;;;;;;;11.77;8.07;;;19.20;94.30;;;;;;5046255;28;20033;-82
2021/06/16 02:38:26;;;;;;;9.43;8.43;;;19.20;94.30;;;;;;5046364;28;20050;-81
2021/06/16 02:40:53;;;;;;;13.10;8.98;;;19.20;94.40;;;;;;5040468;28;20045;-81
2021/06/16 02:43:21;;;;;;;13.77;9.13;;;19.20;94.50;;;;;;5079936;28;20037;-81
2021/06/16 02:45:49;;;;;;;14.70;9.88;;;19.20;94.50;;;;;;5049848;28;20086;-80
2021/06/16 02:48:17;;;;;;;15.00;9.40;;;19.10;94.50;;;;;;5039206;28;20033;-80
2021/06/16 02:50:44;;;;;;;15.40;10.75;;;19.20;94.60;;;;;;5046525;28;20033;-80
2021/06/16 02:53:22;;;;;;;12.35;8.93;;;19.10;94.70;;;;;;5042415;28;20041;-80
2021/06/16 02:55:50;;;;;;;16.65;10.15;;;19.20;94.70;;;;;;5040882;28;20041;-80
2021/06/16 02:58:17;;;;;;;16.23;10.65;;;19.10;94.80;;;;;;5058531;28;20045;-80
2021/06/16 03:00:46;;;;;;;17.10;10.60;;;19.10;94.90;;;;;;5041524;28;20039;-79
2021/06/16 03:03:12;;;;;;;14.52;10.65;;;19.10;95.10;;;;;;5039120;28;20450;-80
2021/06/16 03:05:38;;;;;;;19.63;11.13;;;19.00;95.10;;;;;;5041329;28;20746;-81
2021/06/16 03:08:05;;;;;;;15.63;10.18;;;19.00;95.10;;;;;;5043177;28;20038;-80
2021/06/16 03:10:32;;;;;;;18.63;10.98;;;19.00;95.20;;;;;;5044270;28;20037;-80
2021/06/16 03:12:59;;;;;;;16.65;10.05;;;19.10;95.20;;;;;;5039035;28;20041;-80
2021/06/16 03:15:25;;;;;;;12.82;10.48;;;19.00;95.10;;;;;;5042758;28;20047;-81
2021/06/16 03:17:51;;;;;;;14.23;9.98;;;19.00;95.10;;;;;;5046418;28;20087;-80
2021/06/16 03:20:20;;;;;;;16.85;11.05;;;19.00;95.10;;;;;;5044017;28;20037;-80
2021/06/16 03:22:47;;;;;;;13.65;11.00;;;19.10;95.20;;;;;;5042799;28;20048;-80
2021/06/16 03:25:14;;;;;;;16.15;11.35;;;19.00;95.10;;;;;;5040212;28;20041;-80
2021/06/16 03:27:41;;;;;;;15.02;11.23;;;19.10;95.20;;;;;;5047056;28;20118;-80
2021/06/16 03:30:08;;;;;;;14.13;10.32;;;19.00;95.20;;;;;;5039924;28;20388;-80
2021/06/16 03:32:36;;;;;;;14.45;10.88;;;19.10;95.20;;;;;;5040807;28;20033;-80
2021/06/16 03:35:04;;;;;;;18.02;11.30;;;19.10;95.20;;;;;;5045613;28;20080;-80
2021/06/16 03:37:30;;;;;;;16.05;10.82;;;19.10;95.30;;;;;;5041829;28;20057;-80
2021/06/16 03:39:57;;;;;;;15.77;11.65;;;19.10;95.30;;;;;;5041587;28;20045;-82
2021/06/16 03:42:23;;;;;;;15.85;10.55;;;19.10;95.30;;;;;;5037988;28;20396;-80
2021/06/16 03:44:49;;;;;;;18.65;11.23;;;19.10;95.30;;;;;;5042997;28;20049;-80
2021/06/16 03:47:18;;;;;;;17.73;10.48;;;19.10;95.30;;;;;;5040614;28;20126;-79
2021/06/16 03:49:45;;;;;;;16.77;11.43;;;19.10;95.30;;;;;;5047577;28;20722;-81
2021/06/16 03:52:12;;;;;;;16.17;11.05;;;19.10;95.30;;;;;;5046054;28;20037;-79
2021/06/16 03:54:39;;;;;;;14.02;10.85;;;19.10;95.40;;;;;;5035986;28;20041;-81
2021/06/16 03:57:07;;;;;;;13.52;11.00;;;19.10;95.30;;;;;;5042760;28;20132;-80
2021/06/16 03:59:34;;;;;;;16.02;10.77;;;19.10;95.30;;;;;;5038833;28;20294;-81
2021/06/16 04:02:00;;;;;;;13.50;11.57;;;19.10;95.30;;;;;;5063048;28;21655;-81
2021/06/16 04:04:26;;;;;;;18.13;13.00;;;19.20;95.40;;;;;;5038840;28;20094;-80
2021/06/16 04:06:52;;;;;;;18.35;12.40;;;19.20;95.50;;;;;;5042042;28;20356;-80
2021/06/16 04:09:19;;;;;;;14.05;12.02;;;19.20;95.20;;;;;;5038088;28;20076;-81
2021/06/16 04:11:44;;;;;;;16.95;11.13;;;19.20;95.20;;;;;;5042275;28;20043;-81
2021/06/16 04:14:11;;;;;;;17.75;11.38;;;19.20;95.20;;;;;;5037410;28;21741;-82
2021/06/16 04:16:41;;;;;;;17.58;11.60;;;19.30;95.20;;;;;;5043396;28;20029;-79
2021/06/16 04:19:06;;;;;;;15.63;11.95;;;19.30;95.00;;;;;;5045857;28;20392;-80
2021/06/16 04:21:32;;;;;;;16.95;12.48;;;19.30;95.00;;;;;;5038546;28;20033;-80
2021/06/16 04:23:58;;;;;;;18.15;10.52;;;19.30;95.10;;;;;;5044452;28;20041;-80
2021/06/16 04:26:23;;;;;;;17.58;11.32;;;19.30;95.00;;;;;;5042902;28;20033;-80
2021/06/16 04:28:49;;;;;;;16.98;11.63;;;19.40;94.80;;;;;;5044834;28;20080;-80
2021/06/16 04:31:15;;;;;;;16.02;11.50;;;19.40;94.80;;;;;;5041321;28;20029;-81
2021/06/16 04:33:41;;;;;;;18.45;11.18;;;19.40;94.90;;;;;;5037155;28;20124;-81
2021/06/16 04:36:07;;;;;;;16.83;11.82;;;19.40;94.80;;;;;;5041034;28;20120;-81
2021/06/16 04:38:34;;;;;;;19.88;11.85;;;19.50;95.00;;;;;;5040277;28;20045;-81
2021/06/16 04:41:00;;;;;;;16.92;11.60;;;19.50;94.60;;;;;;5038210;28;20044;-80
2021/06/16 04:43:26;;;;;;;15.82;11.57;;;19.50;94.50;;;;;;5044358;28;20586;-81
2021/06/16 04:45:51;;;;;;;14.52;10.77;;;19.50;94.70;;;;;;5036342;28;20114;-81
2021/06/16 04:48:17;;;;;;;14.80;12.20;;;19.50;94.80;;;;;;5033818;28;20046;-80
2021/06/16 04:50:43;;;;;;;20.33;11.48;;;19.50;94.60;;;;;;5042387;28;20095;-79
2021/06/16 04:53:09;;;;;;;15.98;10.75;;;19.50;94.80;;;;;;5041293;28;20057;-82
2021/06/16 04:55:34;;;;;;;14.13;11.27;;;19.60;94.60;;;;;;5036465;28;20037;-82
2021/06/16 04:58:00;;;;;;;17.52;11.55;;;19.60;94.70;;;;;;5044530;28;20160;-82
2021/06/16 05:00:26;;;;;;;19.38;12.25;;;19.60;94.70;;;;;;5046913;28;20071;-80
2021/06/16 05:02:56;;;;;;;13.90;10.75;;;19.60;94.80;;;;;;5048290;28;20110;-81
2021/06/16 05:05:23;;;;;;;21.95;11.80;;;19.60;94.80;;;;;;5044032;28;20045;-79
2021/06/16 05:07:48;;;;;;;15.77;11.80;;;19.70;94.60;;;;;;5039223;28;20072;-81
2021/06/16 05:10:14;;;;;;;15.30;11.18;;;19.70;94.50;;;;;;5043767;28;20048;-82
2021/06/16 05:12:40;;;;;;;14.32;10.57;;;19.70;94.50;;;;;;5044112;28;20051;-80
2021/06/16 05:15:07;;;;;;;16.50;11.95;;;19.80;94.70;;;;;;5048501;28;20040;-81
2021/06/16 05:17:33;;;;;;;17.42;12.57;;;19.80;94.50;;;;;;5045237;28;20116;-80
2021/06/16 05:19:58;;;;;;;15.95;11.25;;;19.90;94.60;;;;;;5049353;28;20068;-82
2021/06/16 05:22:26;;;;;;;16.30;11.30;;;19.90;94.30;;;;;;5052785;28;20059;-80
2021/06/16 05:24:53;;;;;;;17.77;10.90;;;20.00;94.70;;;;;;5042852;28;20037;-80
2021/06/16 05:27:18;;;;;;;15.57;10.73;;;20.10;94.40;;;;;;5044791;28;20037;-80
2021/06/16 05:29:45;;;;;;;17.05;11.07;;;20.10;94.30;;;;;;5059837;28;20044;-80
2021/06/16 05:32:11;;;;;;;14.68;10.70;;;20.20;94.00;;;;;;5058182;28;20572;-81
2021/06/16 05:34:37;;;;;;;17.75;11.73;;;20.40;93.90;;;;;;5053678;28;20046;-81
2021/06/16 05:37:04;;;;;;;13.73;10.15;;;20.50;94.20;;;;;;5039080;28;20036;-82
2021/06/16 05:39:31;;;;;;;16.17;10.90;;;20.60;93.60;;;;;;5043633;28;20045;-81
2021/06/16 05:41:57;;;;;;;18.02;11.43;;;20.70;93.80;;;;;;5036550;28;20048;-80
2021/06/16 05:44:23;;;;;;;16.27;12.07;;;20.80;93.80;;;;;;5051887;28;20032;-80
2021/06/16 05:46:48;;;;;;;17.15;10.95;;;20.90;93.60;;;;;;5056147;28;20052;-80
2021/06/16 05:49:14;;;;;;;14.00;10.68;;;21.00;93.60;;;;;;5057318;28;20045;-81
2021/06/16 05:51:39;;;;;;;15.02;11.00;;;21.00;93.50;;;;;;5041624;28;20048;-82
2021/06/16 05:54:09;;;;;;;18.13;10.18;;;21.10;93.50;;;;;;5054830;28;20077;-80
2021/06/16 05:56:39;;;;;;;15.05;11.43;;;21.10;93.40;;;;;;5037843;28;20044;-80
2021/06/16 05:59:05;;;;;;;14.23;10.82;;;21.10;93.30;;;;;;5053511;28;20041;-82
2021/06/16 06:01:32;;;;;;;14.07;11.65;;;21.20;93.50;;;;;;5055779;28;20122;-81
2021/06/16 06:03:57;;;;;;;15.77;9.68;;;21.20;93.30;;;;;;5036546;28;20041;-80
2021/06/16 06:06:23;;;;;;;12.27;9.52;;;21.30;93.10;;;;;;5044204;28;20459;-80
2021/06/16 06:08:49;;;;;;;16.17;11.07;;;21.30;93.20;;;;;;5067636;28;20311;-81
2021/06/16 06:11:14;;;;;;;16.90;11.10;;;21.40;92.80;;;;;;5078281;28;20036;-81
2021/06/16 06:13:39;;;;;;;15.95;10.95;;;21.40;92.70;;;;;;5071034;28;20397;-81
2021/06/16 06:16:06;;;;;;;17.92;10.50;;;21.40;92.70;;;;;;5053309;28;20044;-83
2021/06/16 06:18:31;;;;;;;13.32;11.10;;;21.40;92.80;;;;;;5057282;28;20043;-81
2021/06/16 06:20:56;;;;;;;15.02;10.50;;;21.40;93.00;;;;;;5039814;28;20041;-81
2021/06/16 06:23:22;;;;;;;13.18;10.52;;;21.40;92.70;;;;;;5040366;28;20038;-82
2021/06/16 06:25:48;;;;;;;15.88;12.18;;;21.40;92.70;;;;;;5056280;28;20033;-80
2021/06/16 06:28:13;;;;;;;16.00;11.40;;;21.40;92.70;;;;;;5036594;28;20037;-81
2021/06/16 06:30:40;;;;;;;17.13;11.38;;;21.40;92.70;;;;;;5037280;28;20132;-82
2021/06/16 06:33:05;;;;;;;15.23;10.82;;;21.40;92.80;;;;;;5020946;28;20054;-80
2021/06/16 06:35:31;;;;;;;19.85;10.45;;;21.50;92.90;;;;;;5036754;28;20080;-80
2021/06/16 06:37:56;;;;;;;12.73;10.55;;;21.60;92.90;;;;;;5030101;28;20045;-81
2021/06/16 06:40:22;;;;;;;12.18;9.82;;;21.70;93.00;;;;;;5026321;28;20477;-80
2021/06/16 06:42:47;;;;;;;12.88;10.07;;;21.80;92.60;;;;;;5026078;28;20052;-80
2021/06/16 06:45:13;;;;;;;12.23;10.55;;;21.90;92.70;;;;;;5018207;28;20041;-80
2021/06/16 06:47:38;;;;;;;15.55;9.88;;;22.00;92.40;;;;;;5017629;28;20345;-80
2021/06/16 06:50:11;;;;;;;13.48;9.90;;;22.20;92.50;;;;;;5024281;28;20479;-80
2021/06/16 06:52:37;;;;;;;11.65;9.55;;;22.30;91.80;;;;;;5028576;28;20405;-81
2021/06/16 06:55:03;;;;;;;12.00;9.40;;;22.40;91.80;;;;;;5025450;28;20076;-82
2021/06/16 06:57:29;;;;;;;16.27;9.98;;;22.50;91.70;;;;;;5017279;28;20038;-80
2021/06/16 06:59:54;;;;;;;12.18;9.30;;;22.60;91.30;;;;;;5016045;28;20042;-80
2021/06/16 07:02:20;;;;;;;13.40;10.07;;;22.70;91.20;;;;;;5020474;28;20053;-81
2021/06/16 07:04:45;;;;;;;13.20;10.70;;;22.80;91.20;;;;;;5016658;28;20038;-80
2021/06/16 07:07:11;;;;;;;16.73;10.30;;;22.80;91.20;;;;;;5015171;28;20052;-81
2021/06/16 07:09:36;;;;;;;12.68;10.00;;;22.90;91.30;;;;;;5016907;28;20316;-81
2021/06/16 07:12:02;;;;;;;12.35;10.35;;;23.00;91.10;;;;;;5016897;28;20049;-79
2021/06/16 07:14:28;;;;;;;12.93;10.07;;;23.00;91.00;;;;;;5024324;28;20472;-79
2021/06/16 07:16:53;;;;;;;14.35;10.27;;;23.10;90.60;;;;;;5032798;28;20091;-80
2021/06/16 07:19:19;;;;;;;14.52;9.75;;;23.10;90.80;;;;;;5036748;28;20037;-81
2021/06/16 07:21:44;;;;;;;14.27;9.57;;;23.00;90.80;;;;;;5033055;28;20042;-80
2021/06/16 07:24:11;;;;;;;10.90;9.07;;;23.00;90.80;;;;;;5030911;28;20041;-81
2021/06/16 07:26:37;;;;;;;15.25;10.70;;;23.00;90.70;;;;;;5015373;28;20053;-80
2021/06/16 07:29:02;;;;;;;13.07;10.50;;;23.00;90.80;;;;;;5030206;28;20436;-81
2021/06/16 07:31:28;;;;;;;16.27;9.77;;;22.90;91.20;;;;;;5026511;28;20061;-80
2021/06/16 07:33:53;;;;;;;16.73;9.43;;;22.90;90.60;;;;;;5016364;28;20049;-79
2021/06/16 07:36:19;;;;;;;13.73;9.85;;;22.90;90.80;;;;;;5033407;28;20096;-80
2021/06/16 07:38:44;;;;;;;12.25;9.52;;;22.90;91.00;;;;;;5030343;28;20100;-82
2021/06/16 07:41:10;;;;;;;16.83;9.70;;;23.00;91.20;;;;;;5029009;28;20071;-79
2021/06/16 07:43:35;;;;;;;13.82;9.15;;;23.00;90.80;;;;;;5029409;28;20038;-81
2021/06/16 07:46:01;;;;;;;11.60;9.27;;;23.10;91.00;;;;;;5021373;28;20317;-81
2021/06/16 07:48:26;;;;;;;12.55;10.00;;;23.10;90.60;;;;;;5015421;28;20132;-81
2021/06/16 07:50:52;;;;;;;11.35;8.63;;;23.20;90.60;;;;;;5025637;28;20052;-80
2021/06/16 07:53:17;;;;;;;12.13;8.75;;;23.30;90.40;;;;;;5034424;28;20033;-80
2021/06/16 07:55:43;;;;;;;12.10;9.05;;;23.30;90.20;;;;;;5034414;28;20044;-80
2021/06/16 07:58:10;;;;;;;11.35;8.40;;;23.40;89.80;;;;;;5026023;28;20538;-80
2021/06/16 08:00:35;;;;;;;11.10;8.65;;;23.40;90.40;;;;;;5015288;28;20049;-81
2021/06/16 08:03:02;;;;;;;12.65;8.02;;;23.50;90.30;;;;;;5029446;28;20413;-82
2021/06/16 08:05:27;;;;;;;11.63;6.55;;;23.60;90.50;;;;;;5032193;28;20034;-82
2021/06/16 08:07:53;;;;;;;10.52;7.78;;;23.70;89.70;;;;;;5016198;28;20061;-82
2021/06/16 08:10:18;;;;;;;12.48;7.85;;;23.90;90.20;;;;;;5029306;28;20033;-80
2021/06/16 08:12:44;;;;;;;12.60;8.27;;;24.00;89.90;;;;;;5029247;28;20029;-79
2021/06/16 08:15:10;;;;;;;12.43;7.78;;;24.10;90.00;;;;;;5034929;28;20128;-81
2021/06/16 08:17:36;;;;;;;11.68;6.72;;;24.30;88.00;;;;;;5035081;28;20367;-81
2021/06/16 08:20:04;;;;;;;11.57;7.72;;;24.50;86.60;;;;;;5034307;28;20045;-81
2021/06/16 08:22:29;;;;;;;10.18;6.82;;;24.60;87.20;;;;;;5019977;28;20057;-80
2021/06/16 08:24:56;;;;;;;11.80;7.30;;;24.70;83.60;;;;;;5030606;28;20162;-82
2021/06/16 08:27:21;;;;;;;8.77;6.00;;;24.80;85.20;;;;;;5024001;28;20424;-81
2021/06/16 08:29:47;;;;;;;7.80;6.05;;;24.90;85.00;;;;;;5022300;28;20042;-82
2021/06/16 08:32:12;;;;;;;8.50;6.50;;;25.00;82.50;;;;;;5026003;28;20102;-81
2021/06/16 08:34:38;;;;;;;12.75;5.75;;;25.10;84.60;;;;;;5020925;28;20030;-81
2021/06/16 08:37:05;;;;;;;8.63;6.43;;;25.20;85.40;;;;;;5016223;28;20405;-82
2021/06/16 08:39:30;;;;;;;11.13;6.35;;;25.40;84.00;;;;;;5020817;28;20060;-81
2021/06/16 08:41:56;;;;;;;11.43;6.80;;;25.50;81.00;;;;;;5032174;28;20132;-81
2021/06/16 08:44:21;;;;;;;12.15;6.40;;;25.60;82.50;;;;;;5033917;28;20052;-81
2021/06/16 08:46:48;;;;;;;14.50;7.22;;;25.60;83.10;;;;;;5033769;28;20048;-82
2021/06/16 08:49:14;;;;;;;8.90;5.93;;;25.70;83.60;;;;;;5023706;28;20056;-81
2021/06/16 08:51:39;;;;;;;9.38;6.28;;;25.80;83.90;;;;;;5019599;28;20125;-80
2021/06/16 08:54:08;;;;;;;8.73;6.40;;;25.90;82.30;;;;;;5024021;28;20124;-81
2021/06/16 08:56:33;;;;;;;8.27;6.60;;;26.00;80.70;;;;;;5029235;28;20033;-81
2021/06/16 08:58:59;;;;;;;9.55;6.65;;;26.10;80.70;;;;;;5018062;28;20042;-81
2021/06/16 09:01:25;;;;;;;11.25;6.38;;;26.20;79.70;;;;;;5028619;28;20041;-82
2021/06/16 09:03:50;;;;;;;7.45;5.40;;;26.30;80.40;;;;;;5026362;28;20045;-82
2021/06/16 09:06:17;;;;;;;7.93;5.38;;;26.30;81.60;;;;;;5032558;28;20383;-81
2021/06/16 09:09:01;;;;;;;9.77;6.70;;;26.30;80.40;;;;;;5022232;28;20168;-81
2021/06/16 09:11:47;;;;;;;8.80;6.10;;;26.30;78.30;;;;;;5025776;28;20041;-81
2021/06/16 09:14:22;;;;;;;9.70;4.93;;;26.40;78.00;;;;;;5034845;28;20356;-81
2021/06/16 09:16:49;;;;;;;9.10;4.95;;;26.40;78.60;;;;;;5033992;28;20132;-81
2021/06/16 09:19:37;;;;;;;9.10;5.43;;;26.40;77.90;;;;;;5037386;28;20076;-80
2021/06/16 09:22:10;;;;;;;8.65;5.15;;;26.60;78.80;;;;;;5035077;28;20045;-79
2021/06/16 09:24:47;;;;;;;10.25;5.60;;;26.60;78.70;;;;;;5021285;28;20187;-80
2021/06/16 09:27:38;;;;;;;8.70;5.40;;;26.70;77.10;;;;;;5028566;28;20038;-80
2021/06/16 09:30:24;;;;;;;6.20;5.03;;;26.90;79.20;;;;;;5034907;28;20337;-80
2021/06/16 09:33:11;;;;;;;11.13;5.40;;;26.90;77.50;;;;;;5038682;28;20044;-81
2021/06/16 09:35:39;;;;;;;11.68;4.95;;;27.00;78.30;;;;;;5028778;28;20049;-81
2021/06/16 09:38:11;;;;;;;7.30;5.18;;;27.10;79.30;;;;;;5037221;28;20091;-81
2021/06/16 09:40:42;;;;;;;6.30;4.55;;;27.20;76.50;;;;;;5037542;28;20041;-81
2021/06/16 09:43:10;;;;;;;7.22;5.00;;;27.40;78.70;;;;;;5036708;28;20048;-81
2021/06/16 09:45:38;;;;;;;5.20;4.70;;;27.50;77.00;;;;;;5037701;28;20115;-82
2021/06/16 09:48:22;;;;;;;5.85;4.95;;;27.60;75.60;;;;;;5035920;28;20445;-79
2021/06/16 09:50:51;;;;;;;6.18;4.40;;;27.80;76.90;;;;;;5035066;28;20037;-81
2021/06/16 09:53:16;;;;;;;9.48;4.00;;;27.90;77.40;;;;;;5036223;28;20073;-80
2021/06/16 09:55:42;;;;;;;7.75;4.57;;;27.90;76.00;;;;;;5035043;28;20316;-80
2021/06/16 09:58:09;;;;;;;6.10;4.55;;;28.10;76.30;;;;;;5020916;28;20317;-80
2021/06/16 10:00:53;;;;;;;9.73;4.22;;;28.10;75.30;;;;;;5035311;28;20052;-80
2021/06/16 10:03:23;;;;;;;6.63;4.50;;;28.10;74.90;;;;;;5037229;28;20118;-80
2021/06/16 10:06:14;;;;;;;7.03;4.78;;;28.20;75.40;;;;;;5033112;28;20420;-81
2021/06/16 10:08:45;;;;;;;11.52;4.70;;;28.40;75.70;;;;;;5045744;28;20075;-81
2021/06/16 10:11:16;;;;;;;10.05;4.53;;;28.40;76.60;;;;;;5017920;28;20422;-80
2021/06/16 10:13:43;;;;;;;7.73;4.53;;;28.50;72.20;;;;;;5033500;28;20195;-81
2021/06/16 10:16:09;;;;;;;8.55;3.90;;;28.60;74.40;;;;;;5037094;28;20352;-81
2021/06/16 10:18:40;;;;;;;6.85;4.78;;;28.70;72.10;;;;;;5037248;28;20104;-81
2021/06/16 10:21:06;;;;;;;7.70;4.47;;;28.80;75.00;;;;;;5036391;28;20037;-81
2021/06/16 10:23:32;;;;;;;8.30;4.60;;;28.80;71.10;;;;;;5050777;28;20018;-91
2021/06/16 10:26:04;;;;;;;5.97;4.15;;;28.80;71.60;;;;;;5049075;28;20037;-88
2021/06/16 10:28:40;;;;;;;7.20;4.40;;;28.70;70.80;;;;;;5041241;28;20044;-87
2021/06/16 10:31:07;;;;;;;6.28;3.70;;;28.80;70.50;;;;;;5037832;28;20051;-81
2021/06/16 10:33:41;;;;;;;9.13;4.38;;;28.70;70.80;;;;;;5024385;28;20033;-82
2021/06/16 10:36:14;;;;;;;8.73;4.70;;;28.70;73.40;;;;;;5033922;28;20049;-79
2021/06/16 10:38:42;;;;;;;5.50;4.60;;;28.70;74.70;;;;;;5037176;28;20728;-80
2021/06/16 10:41:08;;;;;;;6.30;4.10;;;28.80;73.30;;;;;;5035060;28;20360;-80
2021/06/16 10:43:38;;;;;;;7.55;4.60;;;28.90;73.60;;;;;;5036423;28;20037;-79
2021/06/16 10:46:16;;;;;;;7.07;4.43;;;29.00;72.80;;;;;;5035493;28;20033;-79
2021/06/16 10:48:44;;;;;;;20.73;4.70;;;29.10;71.70;;;;;;5034984;28;20088;-79
2021/06/16 10:51:28;;;;;;;7.30;4.63;;;29.20;72.00;;;;;;5025355;28;20093;-79
2021/06/16 10:54:12;;;;;;;32.67;6.30;;;29.30;73.00;;;;;;5049416;28;20033;-79
2021/06/16 10:56:54;;;;;;;18.80;5.55;;;29.40;73.50;;;;;;5016739;28;20044;-79
2021/06/16 10:59:45;;;;;;;11.73;5.13;;;29.40;73.60;;;;;;5031932;28;20042;-79
2021/06/16 11:02:18;;;;;;;9.80;4.45;;;29.50;71.40;;;;;;5031340;28;20045;-80
2021/06/16 11:04:45;;;;;;;6.07;4.53;;;29.60;69.80;;;;;;5029818;28;20037;-80
2021/06/16 11:07:29;;;;;;;5.03;3.65;;;29.70;71.60;;;;;;5019880;28;20049;-79
2021/06/16 11:09:59;;;;;;;20.80;6.03;;;29.90;70.50;;;;;;5019010;28;20663;-80
2021/06/16 11:12:33;;;;;;;7.13;4.35;;;30.00;70.50;;;;;;5033746;28;20045;-81
2021/06/16 11:15:00;;;;;;;10.02;4.43;;;30.20;69.70;;;;;;5026320;28;20140;-80
2021/06/16 11:17:35;;;;;;;6.28;4.50;;;30.30;69.10;;;;;;5020844;28;20041;-80
2021/06/16 11:20:06;;;;;;;6.93;3.83;;;30.30;68.60;;;;;;5026862;28;20072;-80
2021/06/16 11:22:36;;;;;;;7.47;4.18;;;30.20;68.20;;;;;;5021813;28;20408;-80
2021/06/16 11:25:33;;;;;;;4.82;4.20;;;30.30;66.50;;;;;;5019128;28;20050;-79
2021/06/16 11:28:14;;;;;;;7.82;4.20;;;30.30;68.40;;;;;;5036655;28;20053;-80
2021/06/16 11:30:46;;;;;;;9.17;4.50;;;30.40;66.90;;;;;;5033941;28;20048;-79
2021/06/16 11:33:12;;;;;;;7.82;4.15;;;30.40;67.50;;;;;;5025197;28;20033;-80
2021/06/16 11:35:43;;;;;;;6.38;4.03;;;30.30;65.50;;;;;;5028373;28;20091;-78
2021/06/16 11:38:31;;;;;;;6.28;3.72;;;30.20;67.80;;;;;;5025803;28;20040;-78
2021/06/16 11:41:05;;;;;;;12.13;4.28;;;30.20;67.40;;;;;;5010843;28;20409;-79
2021/06/16 11:43:39;;;;;;;5.82;4.18;;;30.20;69.40;;;;;;5028435;28;20045;-79
2021/06/16 11:46:35;;;;;;;5.43;3.78;;;30.20;68.10;;;;;;5034715;28;20037;-80
2021/06/16 11:49:21;;;;;;;4.95;4.38;;;30.40;68.10;;;;;;5034764;28;20053;-80
2021/06/16 11:51:51;;;;;;;7.35;4.25;;;30.50;67.50;;;;;;5033469;28;20043;-79
2021/06/16 11:54:29;;;;;;;9.30;4.45;;;30.60;65.80;;;;;;5029275;28;20401;-79
2021/06/16 11:57:09;;;;;;;4.55;4.10;;;30.60;67.90;;;;;;5020379;28;20385;-78
2021/06/16 11:59:49;;;;;;;4.85;3.97;;;30.70;67.20;;;;;;5015181;28;20124;-79
2021/06/16 12:02:21;;;;;;;6.30;3.85;;;30.80;69.00;;;;;;5024095;28;20457;-80
2021/06/16 12:05:05;;;;;;;7.57;3.88;;;30.90;67.50;;;;;;5024461;28;20106;-80
2021/06/16 12:07:39;;;;;;;6.05;4.05;;;31.00;65.60;;;;;;5022523;28;20116;-79
2021/06/16 12:10:13;;;;;;;5.57;4.07;;;31.00;64.70;;;;;;5023915;28;20033;-79
2021/06/16 12:13:04;;;;;;;6.55;3.45;;;31.00;68.30;;;;;;5030545;28;20041;-79
2021/06/16 12:15:34;;;;;;;5.75;3.78;;;31.10;64.20;;;;;;5027114;28;20049;-80
2021/06/16 12:18:13;;;;;;;7.03;3.88;;;31.10;66.60;;;;;;5029569;28;20029;-85
2021/06/16 12:20:40;;;;;;;6.70;4.75;;;31.00;63.80;;;;;;5021223;28;20041;-81
2021/06/16 12:23:29;;;;;;;3.50;3.00;;;31.00;65.50;;;;;;5044629;28;20052;-78
2021/06/16 12:26:08;;;;;;;4.85;3.47;;;31.10;63.60;;;;;;5020542;28;20401;-80
2021/06/16 12:28:40;;;;;;;8.23;3.00;;;31.30;65.60;;;;;;5018823;28;20053;-80
2021/06/16 12:31:11;;;;;;;6.30;3.78;;;31.30;62.70;;;;;;5029622;28;20037;-79
2021/06/16 12:33:42;;;;;;;5.38;3.75;;;31.40;63.40;;;;;;5028436;28;20038;-78
2021/06/16 12:36:20;;;;;;;4.65;3.42;;;31.40;66.10;;;;;;5025055;28;20508;-78
2021/06/16 12:38:49;;;;;;;4.18;3.72;;;31.50;64.80;;;;;;5031815;28;20049;-78
2021/06/16 12:41:35;;;;;;;6.72;3.42;;;31.60;63.50;;;;;;5049461;28;20381;-79
2021/06/16 12:44:21;;;;;;;4.13;3.03;;;31.80;61.70;;;;;;5032753;28;20100;-80
2021/06/16 12:47:07;;;;;;;4.80;3.75;;;31.80;60.90;;;;;;5059366;28;20388;-79